Time;durP1;ratioP1;P1;durP2;ratioP2;P2;SDS_P1;SDS_P2;PMS_P1;PMS_P2;Temp;Humidity;BMP_temperature;BMP_pressure;BME280_temperature;BME280_humidity;BME280_pressure;Samples;Min_cycle;Max_cycle;Signal;HPM_P1;HPM_P2
2022/09/01 00:01:36;;;;;;;9.70;8.80;;;;;;;23.83;74.13;99178.59;4995559;28;20217;-68
2022/09/01 00:04:03;;;;;;;9.97;8.97;;;;;;;23.75;74.86;99181.09;5008448;28;20280;-68
2022/09/01 00:06:33;;;;;;;12.10;9.37;;;;;;;23.69;74.55;99177.66;5014289;28;20196;-68
2022/09/01 00:09:02;;;;;;;11.67;8.73;;;;;;;23.60;75.54;99173.94;5014712;28;20198;-68
2022/09/01 00:11:30;;;;;;;9.50;8.70;;;;;;;23.66;75.88;99164.69;5014203;28;20205;-67
2022/09/01 00:13:58;;;;;;;10.07;8.97;;;;;;;23.71;74.43;99164.63;5014055;28;20196;-68
2022/09/01 00:16:27;;;;;;;9.83;8.90;;;;;;;23.60;74.39;99167.75;5014568;28;20196;-67
2022/09/01 00:18:55;;;;;;;10.93;9.73;;;;;;;23.48;75.22;99173.53;5014332;28;20196;-67
2022/09/01 00:21:24;;;;;;;15.10;8.87;;;;;;;23.42;75.38;99180.13;5013860;28;20277;-67
2022/09/01 00:23:51;;;;;;;10.00;9.10;;;;;;;23.46;76.35;99162.19;5013603;28;20203;-67
2022/09/01 00:26:18;;;;;;;10.33;9.40;;;;;;;23.52;75.44;99154.81;5013523;28;20664;-67
2022/09/01 00:28:45;;;;;;;10.47;9.63;;;;;;;23.64;74.54;99174.22;5014284;28;20197;-67
2022/09/01 00:31:13;;;;;;;10.30;9.40;;;;;;;23.65;74.97;99170.38;5013874;28;20258;-67
2022/09/01 00:33:42;;;;;;;14.87;9.73;;;;;;;23.55;75.00;99176.72;5013372;28;20200;-67
2022/09/01 00:36:09;;;;;;;10.30;9.40;;;;;;;23.47;75.56;99180.06;5013338;28;20663;-67
2022/09/01 00:38:36;;;;;;;10.80;8.93;;;;;;;23.37;75.63;99185.59;5013409;28;20201;-67
2022/09/01 00:41:04;;;;;;;9.47;8.60;;;;;;;23.41;77.03;99180.41;5013646;28;20603;-67
2022/09/01 00:43:39;;;;;;;10.03;9.20;;;;;;;23.59;76.37;99176.94;5013508;28;20191;-67
2022/09/01 00:46:09;;;;;;;9.43;8.50;;;;;;;23.71;75.87;99174.66;5013095;28;20719;-67
2022/09/01 00:48:36;;;;;;;10.90;9.10;;;;;;;23.72;74.63;99170.81;5013744;28;20207;-67
2022/09/01 00:51:05;;;;;;;10.40;9.30;;;;;;;23.72;75.16;99166.22;5013318;28;20201;-67
2022/09/01 00:53:33;;;;;;;9.83;8.83;;;;;;;23.90;74.91;99168.19;5013669;28;20204;-67
2022/09/01 00:56:01;;;;;;;9.60;8.80;;;;;;;24.01;73.60;99155.34;5013291;28;20189;-67
2022/09/01 00:58:29;;;;;;;11.70;8.40;;;;;;;24.22;73.16;99173.75;5012777;28;20208;-67
2022/09/01 01:00:55;;;;;;;8.87;8.37;;;;;;;24.23;72.19;99167.25;5013201;28;20224;-67
2022/09/01 01:03:23;;;;;;;10.03;9.03;;;;;;;24.26;73.04;99169.34;5004926;28;20260;-67
2022/09/01 01:05:56;;;;;;;9.50;8.57;;;;;;;24.14;71.53;99179.03;4993655;28;20257;-67
2022/09/01 01:08:32;;;;;;;16.80;9.03;;;;;;;24.16;72.17;99183.09;4993311;28;20193;-67
2022/09/01 01:11:00;;;;;;;10.00;9.10;;;;;;;24.22;72.35;99184.63;4993215;28;20615;-68
2022/09/01 01:13:27;;;;;;;9.20;8.40;;;;;;;24.41;71.53;99179.19;4993594;28;20232;-66
2022/09/01 01:15:54;;;;;;;14.13;10.33;;;;;;;24.55;71.02;99180.88;4993341;28;20208;-68
2022/09/01 01:18:21;;;;;;;12.20;11.03;;;;;;;24.42;71.52;99180.84;4993420;28;20194;-67
2022/09/01 01:23:40;;;;;;;15.60;14.03;;;;;;;24.39;70.91;99176.78;4993379;28;20765;-67
2022/09/01 01:26:10;;;;;;;15.23;13.73;;;;;;;24.32;71.29;99170.91;4992940;28;20596;-68
2022/09/01 01:28:39;;;;;;;13.80;12.23;;;;;;;24.17;73.27;99165.69;4993050;28;20197;-68
2022/09/01 01:31:10;;;;;;;15.13;13.97;;;;;;;24.21;71.93;99174.03;4993442;28;20617;-68
2022/09/01 01:33:40;;;;;;;14.03;12.63;;;;;;;24.11;73.28;99166.03;4993219;28;20197;-67
2022/09/01 01:36:11;;;;;;;19.33;14.13;;;;;;;24.08;72.93;99169.34;4993020;28;20204;-67
2022/09/01 01:38:38;;;;;;;16.63;14.90;;;;;;;23.88;73.69;99170.38;4993173;28;20256;-67
2022/09/01 01:41:05;;;;;;;15.13;13.67;;;;;;;23.70;75.36;99163.00;4992922;28;20232;-68
2022/09/01 01:43:33;;;;;;;16.80;14.00;;;;;;;23.62;76.27;99169.06;4993166;28;20255;-68
2022/09/01 01:46:04;;;;;;;15.37;13.30;;;;;;;23.61;75.68;99174.78;4992960;28;20197;-68
2022/09/01 01:48:33;;;;;;;20.87;15.30;;;;;;;23.67;75.77;99173.59;4993374;28;20193;-67
2022/09/01 01:51:01;;;;;;;16.80;13.93;;;;;;;23.60;75.45;99170.44;4992588;28;20658;-67
2022/09/01 01:53:29;;;;;;;16.13;14.60;;;;;;;23.59;75.77;99166.09;4992556;28;20730;-67
2022/09/01 01:55:57;;;;;;;17.07;14.43;;;;;;;23.49;75.59;99177.06;4992887;28;20255;-67
2022/09/01 01:58:24;;;;;;;15.83;14.40;;;;;;;23.32;76.21;99184.84;4992363;28;20323;-67
2022/09/01 02:00:53;;;;;;;16.37;14.13;;;;;;;23.11;77.91;99170.63;4992432;28;20312;-68
2022/09/01 02:03:23;;;;;;;16.27;14.37;;;;;;;23.07;78.71;99169.56;5000812;28;20194;-68
2022/09/01 02:05:52;;;;;;;14.13;13.03;;;;;;;23.14;78.51;99177.38;5013055;28;20250;-68
2022/09/01 02:08:21;;;;;;;19.80;14.87;;;;;;;23.28;77.56;99179.16;5012093;28;20660;-68
2022/09/01 02:10:50;;;;;;;13.50;12.30;;;;;;;23.05;77.75;99133.03;5012400;28;20194;-68
2022/09/01 02:13:29;;;;;;;15.30;13.70;;;;;;;23.48;77.26;99186.31;5012345;28;20253;-67
2022/09/01 02:16:01;;;;;;;16.57;14.93;;;;;;;23.57;76.66;99182.66;5012321;28;20644;-68
2022/09/01 02:18:33;;;;;;;17.90;12.77;;;;;;;23.70;75.83;99182.00;5013070;28;20192;-68
2022/09/01 02:20:59;;;;;;;14.97;13.57;;;;;;;23.79;74.92;99182.97;5012576;28;20269;-68
2022/09/01 02:23:27;;;;;;;13.87;12.67;;;;;;;23.71;74.79;99180.88;5011927;28;20726;-68
2022/09/01 02:25:56;;;;;;;14.97;13.47;;;;;;;23.76;74.94;99194.38;5012197;28;20203;-68
2022/09/01 02:28:23;;;;;;;13.83;12.43;;;;;;;23.79;75.75;99199.25;5012261;28;20277;-68
2022/09/01 02:30:53;;;;;;;17.03;13.40;;;;;;;23.69;74.86;99196.63;5012800;28;20227;-67
2022/09/01 02:33:23;;;;;;;14.60;13.30;;;;;;;23.72;75.45;99193.34;5011942;28;20678;-68
2022/09/01 02:35:51;;;;;;;16.17;14.40;;;;;;;23.73;74.83;99194.97;5012026;28;20201;-68
2022/09/01 02:38:19;;;;;;;20.37;14.57;;;;;;;23.78;74.84;99194.94;5012157;28;20259;-68
2022/09/01 02:40:47;;;;;;;15.07;13.67;;;;;;;23.61;75.29;99174.78;5011527;28;20199;-68
2022/09/01 02:43:19;;;;;;;16.03;14.40;;;;;;;23.55;75.12;99184.88;5011762;28;20259;-68
2022/09/01 02:45:51;;;;;;;13.13;12.00;;;;;;;23.52;76.15;99182.72;5012034;28;20187;-68
2022/09/01 02:48:21;;;;;;;13.13;11.80;;;;;;;23.58;75.55;99187.00;5012137;28;20647;-68
2022/09/01 02:50:49;;;;;;;14.87;13.43;;;;;;;23.56;74.78;99186.47;5011915;28;20224;-68
2022/09/01 02:53:16;;;;;;;16.43;12.87;;;;;;;;;;5012321;28;20257;-68
2022/09/01 02:55:43;;;;;;;18.53;14.70;;;;;;;23.15;75.51;99187.13;5011947;28;20328;-69
2022/09/01 02:58:15;;;;;;;16.47;14.90;;;;;;;23.00;76.87;99193.50;5011605;28;20257;-68
2022/09/01 03:00:42;;;;;;;15.70;14.30;;;;;;;22.85;78.09;99195.50;5011522;28;20183;-67
2022/09/01 03:03:11;;;;;;;16.33;14.80;;;;;;;22.76;78.08;99189.91;5005170;28;20280;-67
2022/09/01 03:05:39;;;;;;;15.40;14.10;;;;;;;22.66;78.01;99183.75;4992035;28;20257;-68
2022/09/01 03:08:13;;;;;;;15.90;14.43;;;;;;;22.59;78.28;99184.06;4992171;28;20198;-68
2022/09/01 03:10:41;;;;;;;15.87;14.47;;;;;;;22.56;78.20;99179.19;4995212;28;20187;-67
2022/09/01 03:13:10;;;;;;;14.93;13.63;;;;;;;22.52;78.74;99183.56;4995630;28;20195;-67
2022/09/01 03:15:38;;;;;;;14.83;13.23;;;;;;;22.41;79.78;99181.97;4995549;28;20592;-67
2022/09/01 03:18:06;;;;;;;17.07;12.87;;;;;;;22.34;79.85;99191.50;4995218;28;20253;-67
2022/09/01 03:20:34;;;;;;;14.37;12.90;;;;;;;22.29;80.53;99199.66;4995350;28;20266;-67
2022/09/01 03:23:02;;;;;;;23.47;14.30;;;;;;;22.27;80.79;99190.97;4995019;28;20225;-67
2022/09/01 03:25:31;;;;;;;15.00;13.50;;;;;;;22.22;79.53;99189.09;4995439;28;20203;-67
2022/09/01 03:28:00;;;;;;;15.67;14.30;;;;;;;22.08;80.75;99193.50;4995628;28;20266;-68
2022/09/01 03:30:28;;;;;;;15.13;13.60;;;;;;;22.02;82.32;99193.81;4996149;28;20281;-68
2022/09/01 03:32:55;;;;;;;15.03;12.43;;;;;;;21.94;81.88;99197.09;4995236;28;20618;-68
2022/09/01 03:35:23;;;;;;;51.10;17.10;;;;;;;21.82;83.67;99189.28;4995600;28;20577;-68
2022/09/01 03:37:50;;;;;;;16.80;14.43;;;;;;;21.90;82.35;99190.59;4994868;28;20199;-68
2022/09/01 03:40:18;;;;;;;14.33;12.93;;;;;;;21.96;83.64;99189.53;4994826;28;20195;-68
2022/09/01 03:42:46;;;;;;;16.13;14.40;;;;;;;22.05;81.73;99199.47;4994933;28;20231;-68
2022/09/01 03:45:15;;;;;;;27.27;16.23;;;;;;;22.22;80.25;99205.34;4995277;28;20194;-68
2022/09/01 03:47:42;;;;;;;18.83;14.80;;;;;;;22.20;80.47;99201.28;4995205;28;20642;-68
2022/09/01 03:50:16;;;;;;;18.67;15.00;;;;;;;22.22;80.08;99199.91;4994680;28;20199;-68
2022/09/01 03:52:44;;;;;;;17.73;14.17;;;;;;;22.23;80.70;99196.16;4994593;28;20198;-68
2022/09/01 03:55:10;;;;;;;19.13;14.97;;;;;;;22.30;80.09;99202.03;4995007;28;20194;-68
2022/09/01 03:57:40;;;;;;;15.27;13.67;;;;;;;22.37;80.31;99197.16;4994507;28;20616;-68
2022/09/01 04:00:19;;;;;;;14.87;12.53;;;;;;;22.54;79.72;99197.59;4994576;28;20683;-68
2022/09/01 04:02:47;;;;;;;22.10;14.63;;;;;;;22.66;78.27;99203.50;4997799;28;20769;-66
2022/09/01 04:05:14;;;;;;;16.00;13.60;;;;;;;22.79;78.87;99205.56;5014299;28;20284;-68
2022/09/01 04:07:45;;;;;;;23.10;14.60;;;;;;;22.79;77.19;99202.84;5014410;28;20195;-67
2022/09/01 04:10:13;;;;;;;20.60;14.43;;;;;;;22.65;77.71;99192.94;5014172;28;20202;-68
2022/09/01 04:12:39;;;;;;;21.50;14.67;;;;;;;22.48;78.42;99198.75;5014389;28;20290;-68
2022/09/01 04:15:09;;;;;;;15.30;13.83;;;;;;;22.41;79.40;99198.19;5013831;28;20257;-68
2022/09/01 04:20:20;;;;;;;15.60;12.83;;;;;;;22.68;78.99;99198.63;5013667;28;20266;-68
2022/09/01 04:22:49;;;;;;;27.97;14.70;;;;;;;22.99;77.29;99200.00;5013475;28;20218;-68
2022/09/01 04:25:16;;;;;;;17.10;13.87;;;;;;;23.16;76.15;99200.38;5014109;28;20198;-69
2022/09/01 04:27:43;;;;;;;17.30;14.20;;;;;;;23.31;75.45;99200.28;5013466;28;20194;-69
2022/09/01 04:30:12;;;;;;;46.73;14.50;;;;;;;23.48;75.03;99202.56;5013976;28;20293;-69
2022/09/01 04:32:40;;;;;;;16.87;13.57;;;;;;;23.54;74.42;99185.97;5013420;28;20199;-69
2022/09/01 04:35:10;;;;;;;18.37;12.77;;;;;;;23.82;73.09;99197.84;5013468;28;20198;-69
2022/09/01 04:37:37;;;;;;;15.60;12.17;;;;;;;24.12;72.96;99192.09;5013805;28;20723;-69
2022/09/01 04:40:04;;;;;;;19.70;12.57;;;;;;;24.39;70.53;99203.13;5013150;28;20204;-68
2022/09/01 04:42:31;;;;;;;21.07;13.10;;;;;;;24.55;69.67;99207.25;5013219;28;20220;-68
2022/09/01 04:44:59;;;;;;;15.93;12.40;;;;;;;24.73;69.18;99204.56;5013007;28;20574;-68
2022/09/01 04:47:29;;;;;;;16.13;12.37;;;;;;;24.90;68.52;99204.03;5013278;28;20196;-69
2022/09/01 04:49:57;;;;;;;20.07;12.63;;;;;;;25.07;67.56;99211.66;5013956;28;20288;-69
2022/09/01 04:52:25;;;;;;;17.87;12.13;;;;;;;25.23;67.21;99210.28;5013315;28;20204;-70
2022/09/01 04:54:53;;;;;;;12.23;10.97;;;;;;;25.56;65.88;99206.47;5012991;28;20665;-69
2022/09/01 04:57:20;;;;;;;16.93;11.00;;;;;;;25.85;63.77;99215.16;5013389;28;20197;-70
2022/09/01 04:59:47;;;;;;;11.70;10.47;;;;;;;26.06;63.26;99219.13;5013021;28;20666;-69
2022/09/01 05:02:13;;;;;;;11.30;10.07;;;;;;;26.48;60.98;99216.03;5012647;28;20217;-69
2022/09/01 05:04:45;;;;;;;13.97;10.23;;;;;;;26.87;60.33;99232.63;4994277;28;20202;-69
2022/09/01 05:07:13;;;;;;;15.87;10.27;;;;;;;27.31;57.93;99233.44;4993528;28;20214;-68
2022/09/01 05:09:40;;;;;;;10.13;9.07;;;;;;;27.66;57.10;99229.00;4992990;28;20199;-69
2022/09/01 05:12:15;;;;;;;15.53;8.97;;;;;;;27.99;55.09;99233.84;4992974;28;20733;-70
2022/09/01 05:14:47;;;;;;;11.80;8.63;;;;;;;28.10;54.64;99228.91;4993226;28;20214;-68
2022/09/01 05:17:16;;;;;;;9.30;8.43;;;;;;;28.26;53.66;99227.34;4993083;28;20682;-68
2022/09/01 05:19:46;;;;;;;13.10;7.70;;;;;;;28.39;53.81;99229.13;4992781;28;20217;-68
2022/09/01 05:22:14;;;;;;;32.30;8.87;;;;;;;28.67;51.53;99222.31;4993016;28;20302;-69
2022/09/01 05:24:41;;;;;;;22.73;8.30;;;;;;;28.73;51.15;99221.00;4992903;28;20286;-69
2022/09/01 05:27:09;;;;;;;9.80;7.10;;;;;;;28.85;50.98;99229.38;4993408;28;20210;-69
2022/09/01 05:29:37;;;;;;;10.20;7.30;;;;;;;28.96;50.67;99230.66;4992836;28;20330;-68
2022/09/01 05:32:07;;;;;;;34.47;7.83;;;;;;;29.23;50.26;99224.88;4992415;28;20202;-69
2022/09/01 05:34:37;;;;;;;17.37;8.03;;;;;;;29.59;49.10;99228.03;4992941;28;20195;-67
2022/09/01 05:37:07;;;;;;;14.83;7.37;;;;;;;29.93;47.04;99238.88;4992965;28;20294;-68
2022/09/01 05:39:36;;;;;;;9.23;7.63;;;;;;;29.81;46.73;99235.22;4993031;28;20206;-68
2022/09/01 05:42:07;;;;;;;8.20;7.17;;;;;;;29.77;46.27;99240.56;4992504;28;20701;-68
2022/09/01 05:44:34;;;;;;;14.33;8.30;;;;;;;29.72;46.72;99240.72;4993165;28;20195;-68
2022/09/01 05:47:02;;;;;;;12.07;8.07;;;;;;;29.71;46.63;99247.34;4993343;28;20594;-69
2022/09/01 05:49:31;;;;;;;15.23;7.30;;;;;;;29.61;46.85;99242.22;4992838;28;20199;-69
2022/09/01 05:51:59;;;;;;;17.33;7.63;;;;;;;29.77;47.07;99246.06;4993012;28;20253;-68
2022/09/01 05:54:27;;;;;;;8.47;7.60;;;;;;;29.84;46.62;99251.81;4992548;28;20552;-69
2022/09/01 05:56:57;;;;;;;12.57;8.00;;;;;;;29.88;47.13;99241.81;4992786;28;20510;-71
2022/09/01 05:59:25;;;;;;;11.03;8.20;;;;;;;30.05;46.42;99240.94;4992834;28;20252;-70
2022/09/01 06:01:52;;;;;;;15.97;9.40;;;;;;;30.27;45.86;99254.38;4992353;28;20681;-74
2022/09/01 06:04:19;;;;;;;14.27;8.47;;;;;;;30.31;46.04;99245.19;5008127;28;20750;-74
2022/09/01 06:06:48;;;;;;;8.57;7.93;;;;;;;30.42;45.52;99249.13;5012508;28;20205;-72
2022/09/01 06:09:17;;;;;;;9.27;8.47;;;;;;;30.44;45.52;99249.63;5012138;28;20256;-69
2022/09/01 06:11:46;;;;;;;8.20;6.70;;;;;;;30.62;45.26;99240.13;5011885;28;20290;-76
2022/09/01 06:14:14;;;;;;;14.50;8.47;;;;;;;30.78;44.96;99238.44;5011576;28;20230;-71
2022/09/01 06:16:42;;;;;;;10.33;7.33;;;;;;;30.98;44.90;99237.63;5011204;28;20189;-71
2022/09/01 06:19:09;;;;;;;10.90;7.63;;;;;;;31.15;44.22;99240.22;5010922;28;20190;-70
2022/09/01 06:21:38;;;;;;;7.73;6.97;;;;;;;31.34;42.78;99237.81;5011996;28;20288;-71
2022/09/01 06:24:06;;;;;;;8.43;7.63;;;;;;;31.39;43.30;99237.59;5011530;28;20221;-70
2022/09/01 06:26:35;;;;;;;7.27;6.57;;;;;;;31.38;42.89;99225.00;5011839;28;20220;-71
2022/09/01 06:29:06;;;;;;;15.87;7.27;;;;;;;31.64;42.96;99231.03;5011376;28;20288;-70
2022/09/01 06:31:37;;;;;;;9.03;7.33;;;;;;;31.64;41.41;99236.53;5009521;28;20197;-72
2022/09/01 06:34:07;;;;;;;8.90;7.53;;;;;;;31.53;41.50;99227.13;5011433;28;20186;-71
2022/09/01 06:36:39;;;;;;;7.30;6.70;;;;;;;31.61;42.43;99228.94;5011810;28;20221;-71
2022/09/01 06:39:08;;;;;;;8.77;7.90;;;;;;;31.91;40.71;99221.38;5012008;28;20185;-71
2022/09/01 06:41:36;;;;;;;8.93;7.60;;;;;;;31.76;41.56;99225.59;5011104;28;20572;-71
2022/09/01 06:44:04;;;;;;;13.77;7.83;;;;;;;31.86;41.15;99236.16;5012614;28;20772;-72
2022/09/01 06:46:33;;;;;;;7.17;6.60;;;;;;;31.93;41.24;99227.34;5015162;28;20194;-70
2022/09/01 06:48:59;;;;;;;10.17;7.57;;;;;;;31.98;40.73;99219.66;5014209;28;20197;-73
2022/09/01 06:51:28;;;;;;;9.30;7.63;;;;;;;32.08;41.12;99221.94;5015315;28;20236;-70
2022/09/01 06:53:58;;;;;;;10.67;6.90;;;;;;;32.22;41.35;99222.38;5015213;28;20622;-69
2022/09/01 06:56:27;;;;;;;9.60;7.30;;;;;;;32.50;40.28;99222.53;5016055;28;20226;-71
2022/09/01 06:58:54;;;;;;;12.07;7.60;;;;;;;32.65;39.40;99222.59;5014934;28;20658;-69
2022/09/01 07:01:23;;;;;;;8.13;7.30;;;;;;;32.76;38.88;99223.75;5014856;28;20194;-73
2022/09/01 07:03:52;;;;;;;12.07;7.10;;;;;;;32.80;39.11;99221.94;5014359;28;20287;-72
2022/09/01 07:06:23;;;;;;;8.17;7.07;;;;;;;32.91;39.05;99222.22;5014278;28;20194;-70
2022/09/01 07:08:54;;;;;;;9.97;7.37;;;;;;;33.03;38.71;99231.22;5014952;28;20580;-72
2022/09/01 07:11:26;;;;;;;9.17;7.23;;;;;;;33.22;38.71;99223.13;5014722;28;20660;-69
2022/09/01 07:13:56;;;;;;;7.53;7.13;;;;;;;33.26;38.53;99221.28;5014490;28;20654;-70
2022/09/01 07:16:25;;;;;;;7.43;6.77;;;;;;;33.49;37.56;99220.72;5015583;28;20194;-67
2022/09/01 07:18:55;;;;;;;7.97;7.27;;;;;;;33.61;36.99;99223.41;5014967;28;20205;-69
2022/09/01 07:21:22;;;;;;;7.80;6.90;;;;;;;33.74;36.90;99216.66;5014538;28;20222;-72
2022/09/01 07:23:50;;;;;;;9.15;7.40;;;;;;;33.52;36.76;99214.50;5014292;28;20732;-71
2022/09/01 07:26:18;;;;;;;7.57;6.72;;;;;;;33.63;36.96;99215.59;5014348;28;20197;-70
2022/09/01 07:28:45;;;;;;;8.45;7.05;;;;;;;33.84;36.71;99216.19;5013769;28;20204;-70
2022/09/01 07:31:20;;;;;;;12.32;7.53;;;;;;;33.97;35.32;99214.91;5013721;28;20201;-71
2022/09/01 07:33:50;;;;;;;7.65;6.90;;;;;;;33.87;35.98;99207.16;5013913;28;20205;-72
2022/09/01 07:36:17;;;;;;;10.43;7.50;;;;;;;34.05;35.52;99205.66;5013890;28;20396;-70
2022/09/01 07:38:44;;;;;;;10.93;7.60;;;;;;;34.09;35.29;99201.03;5014138;28;20204;-69
2022/09/01 07:41:12;;;;;;;14.88;8.07;;;;;;;34.09;35.77;99204.56;5014087;28;20198;-72
2022/09/01 07:43:43;;;;;;;8.10;7.07;;;;;;;34.07;35.57;99197.81;5014555;28;20271;-70
2022/09/01 07:46:11;;;;;;;9.57;7.30;;;;;;;34.14;35.55;99203.50;5014163;28;20672;-71
2022/09/01 07:48:38;;;;;;;9.98;7.72;;;;;;;34.34;35.52;99199.69;5005601;28;20194;-73
2022/09/01 07:51:07;;;;;;;13.02;8.00;;;;;;;34.18;34.77;99198.88;5004850;28;20190;-70
2022/09/01 07:53:36;;;;;;;8.68;7.82;;;;;;;33.69;36.36;99197.63;5003713;28;20321;-75
2022/09/01 07:56:08;;;;;;;7.38;6.65;;;;;;;33.87;35.31;99193.38;5001977;28;20258;-73
2022/09/01 07:58:37;;;;;;;8.93;7.50;;;;;;;34.03;35.29;99192.22;5003857;28;20266;-73
2022/09/01 08:01:07;;;;;;;8.65;7.07;;;;;;;34.13;35.69;99197.19;5004299;28;20205;-72
2022/09/01 08:03:34;;;;;;;8.30;7.60;;;;;;;34.29;35.19;99188.91;5008388;28;20206;-72
2022/09/01 08:06:05;;;;;;;9.10;8.32;;;;;;;34.32;35.60;99189.00;5005173;28;20193;-72
2022/09/01 08:08:33;;;;;;;16.30;12.00;;;;;;;34.32;34.64;99190.97;5003353;28;20273;-73
2022/09/01 08:11:00;;;;;;;11.02;9.45;;;;;;;34.37;34.28;99185.97;5004750;28;20666;-72
2022/09/01 08:13:27;;;;;;;14.73;9.70;;;;;;;34.23;34.39;99182.06;5007333;28;20210;-73
2022/09/01 08:15:54;;;;;;;12.15;10.77;;;;;;;34.36;34.33;99183.56;5003077;28;20198;-73
2022/09/01 08:18:21;;;;;;;9.60;8.60;;;;;;;34.35;33.62;99188.28;5003552;28;20186;-74
2022/09/01 08:20:48;;;;;;;15.88;7.75;;;;;;;34.37;34.21;99185.19;5003228;28;20248;-73
2022/09/01 08:23:18;;;;;;;8.93;7.95;;;;;;;34.39;33.88;99182.84;5004348;28;20218;-74
2022/09/01 08:25:47;;;;;;;10.68;7.85;;;;;;;34.22;33.75;99183.22;4999158;28;20730;-74
2022/09/01 08:28:14;;;;;;;7.85;7.07;;;;;;;34.22;33.60;99166.66;5012597;28;20202;-75
2022/09/01 08:30:43;;;;;;;8.80;8.00;;;;;;;34.31;33.40;99175.56;5004543;28;20251;-74
2022/09/01 08:33:10;;;;;;;7.85;6.85;;;;;;;34.40;34.08;99173.41;5003415;28;20194;-74
2022/09/01 08:35:38;;;;;;;8.45;6.93;;;;;;;34.52;33.60;99173.28;5012471;28;20206;-73
2022/09/01 08:38:05;;;;;;;8.90;6.63;;;;;;;34.45;33.29;99167.63;5002455;28;20670;-74
2022/09/01 08:40:32;;;;;;;9.27;7.38;;;;;;;34.34;33.50;99172.09;5005229;28;20190;-74
2022/09/01 08:43:10;;;;;;;9.85;7.40;;;;;;;34.25;34.13;99166.75;5003061;28;20570;-73
2022/09/01 08:45:44;;;;;;;9.40;7.32;;;;;;;34.29;33.96;99167.63;5005435;28;20186;-74
2022/09/01 08:48:16;;;;;;;7.88;7.00;;;;;;;34.01;34.16;99160.66;5013091;28;20697;-75
2022/09/01 08:50:45;;;;;;;17.75;7.13;;;;;;;34.01;34.75;99155.16;5009644;28;20589;-72
2022/09/01 08:53:21;;;;;;;7.90;6.95;;;;;;;33.77;34.93;99149.81;5006875;28;20212;-74
2022/09/01 08:55:54;;;;;;;7.45;6.75;;;;;;;32.99;36.61;99145.00;5013160;28;20190;-72
2022/09/01 08:58:23;;;;;;;13.07;7.57;;;;;;;33.34;35.85;99136.91;5012934;28;20635;-71
2022/09/01 09:00:55;;;;;;;8.43;6.78;;;;;;;33.45;35.91;99137.19;5012387;28;20628;-72
2022/09/01 09:03:31;;;;;;;7.60;6.93;;;;;;;33.56;36.02;99132.75;5004628;28;20214;-73
2022/09/01 09:06:10;;;;;;;7.82;7.07;;;;;;;33.09;36.15;99139.00;4992898;28;20713;-73
2022/09/01 09:08:52;;;;;;;9.73;6.53;;;;;;;33.30;36.61;99131.28;4993041;28;20277;-75
2022/09/01 09:11:41;;;;;;;7.60;6.18;;;;;;;33.55;35.74;99136.66;4993477;28;20297;-73
2022/09/01 09:14:18;;;;;;;5.72;5.22;;;;;;;33.39;35.06;99133.09;4979997;28;20765;-73
2022/09/01 09:16:48;;;;;;;5.78;5.15;;;;;;;33.54;34.99;99141.38;4993350;28;20182;-73
2022/09/01 09:19:21;;;;;;;8.13;5.18;;;;;;;33.54;35.44;99140.56;4992930;28;20195;-75
2022/09/01 09:21:50;;;;;;;9.15;5.60;;;;;;;33.18;35.72;99131.38;5006222;28;20197;-75
2022/09/01 09:24:26;;;;;;;6.53;5.93;;;;;;;33.46;35.66;99123.06;5032207;28;20573;-74
2022/09/01 09:26:54;;;;;;;9.10;5.78;;;;;;;33.33;36.36;99127.84;5031672;28;20250;-73
2022/09/01 09:29:23;;;;;;;6.47;5.80;;;;;;;32.89;36.38;99120.75;5016574;28;20226;-75
2022/09/01 09:32:02;;;;;;;7.45;5.60;;;;;;;32.91;36.64;99109.38;5011546;28;20205;-81
2022/09/01 09:34:33;;;;;;;6.53;5.90;;;;;;;33.19;35.85;99108.19;5008996;28;20248;-77
2022/09/01 09:37:19;;;;;;;6.20;5.68;;;;;;;33.57;35.49;99112.31;5012519;28;20205;-79
2022/09/01 09:40:01;;;;;;;7.28;5.70;;;;;;;33.63;35.24;99116.41;5013035;28;20182;-79
2022/09/01 09:42:28;;;;;;;11.43;6.25;;;;;;;33.47;35.54;99118.34;5012464;28;20196;-77
2022/09/01 09:44:57;;;;;;;7.70;6.65;;;;;;;32.69;37.19;99110.72;5012218;28;20226;-73
2022/09/01 09:47:36;;;;;;;9.25;6.72;;;;;;;32.98;36.91;99113.13;5012010;28;20192;-72
2022/09/01 09:50:23;;;;;;;7.15;6.55;;;;;;;32.87;36.86;99112.03;5012329;28;20260;-74
2022/09/01 09:52:53;;;;;;;7.95;6.03;;;;;;;33.14;35.87;99102.94;5011872;28;20723;-75
2022/09/01 09:55:27;;;;;;;7.85;6.80;;;;;;;33.34;36.04;99098.34;5012090;28;20583;-76
2022/09/01 09:57:58;;;;;;;9.23;6.60;;;;;;;33.50;35.50;99085.38;5008524;28;20612;-75
2022/09/01 10:00:29;;;;;;;10.68;7.00;;;;;;;33.81;35.39;99095.56;5011897;28;20277;-75
2022/09/01 10:03:00;;;;;;;8.50;5.97;;;;;;;33.51;35.83;99083.44;5007182;28;20190;-75
2022/09/01 10:05:37;;;;;;;10.25;7.10;;;;;;;33.62;35.83;99088.03;4992382;28;20225;-73
2022/09/01 10:08:06;;;;;;;10.18;6.15;;;;;;;33.44;35.88;99080.50;4992085;28;20596;-73
2022/09/01 10:10:40;;;;;;;6.10;5.55;;;;;;;33.52;36.03;99083.09;4992646;28;20216;-77
2022/09/01 10:13:12;;;;;;;6.05;5.43;;;;;;;33.77;35.45;99075.41;4992256;28;20186;-74
2022/09/01 10:15:43;;;;;;;6.88;6.22;;;;;;;33.84;35.20;99083.88;4992891;28;20199;-76
2022/09/01 10:18:15;;;;;;;9.00;6.07;;;;;;;33.95;35.32;99079.38;4992126;28;20197;-82
2022/09/01 10:20:48;;;;;;;7.43;5.72;;;;;;;33.95;35.46;99063.66;4995968;28;20202;-74
2022/09/01 10:23:15;;;;;;;9.20;5.95;;;;;;;33.93;35.76;99065.97;4996225;28;20186;-76
2022/09/01 10:25:46;;;;;;;6.22;5.68;;;;;;;33.79;35.79;99053.78;4996581;28;20733;-73
2022/09/01 10:28:17;;;;;;;7.05;5.90;;;;;;;33.81;36.63;99051.47;4994529;28;20183;-73
2022/09/01 10:30:47;;;;;;;6.10;5.18;;;;;;;33.85;35.67;99049.63;4995447;28;20285;-84
2022/09/01 10:33:20;;;;;;;7.43;5.45;;;;;;;33.88;36.05;99057.97;5002378;28;20190;-73
2022/09/01 10:35:51;;;;;;;8.80;5.82;;;;;;;33.53;35.81;99056.31;5010511;28;20558;-79
2022/09/01 10:38:21;;;;;;;6.43;5.80;;;;;;;33.58;36.35;99054.09;5011267;28;20225;-74
2022/09/01 10:41:05;;;;;;;7.13;5.57;;;;;;;33.60;36.13;99050.97;5009487;28;20208;-72
2022/09/01 10:43:41;;;;;;;6.65;5.38;;;;;;;33.10;36.44;99044.22;5011042;28;20682;-74
2022/09/01 10:46:47;;;;;;;9.02;5.45;;;;;;;33.45;36.55;99043.53;5010513;28;20191;-74
2022/09/01 10:49:57;;;;;;;7.72;5.25;;;;;;;33.33;36.96;99040.88;5010311;28;20190;-75
2022/09/01 10:52:59;;;;;;;7.72;5.85;;;;;;;33.61;36.36;99036.84;5008159;28;20229;-78
2022/09/01 10:55:30;;;;;;;6.20;5.80;;;;;;;33.82;36.27;99042.06;5007129;28;20193;-76
2022/09/01 10:58:08;;;;;;;6.28;5.35;;;;;;;33.86;36.09;99048.47;5009786;28;20213;-75
2022/09/01 11:00:49;;;;;;;8.45;5.55;;;;;;;33.82;35.99;99036.56;5010452;28;20596;-76
2022/09/01 11:03:51;;;;;;;10.82;6.35;;;;;;;34.09;35.50;99027.31;5009316;28;20205;-80
2022/09/01 11:06:55;;;;;;;7.28;5.90;;;;;;;34.32;35.42;99029.03;5007550;28;20202;-84
2022/09/01 11:09:26;;;;;;;8.95;6.03;;;;;;;34.23;35.38;99033.13;4969024;28;20202;-78
2022/09/01 11:12:47;;;;;;;6.88;5.03;;;;;;;34.32;34.92;99031.78;5002432;28;20210;-83
2022/09/01 11:15:36;;;;;;;10.63;5.63;;;;;;;34.45;34.62;99021.41;5006869;28;20193;-80
2022/09/01 11:18:09;;;;;;;10.00;5.65;;;;;;;34.55;34.62;99027.13;5008702;28;20197;-83
2022/09/01 11:20:39;;;;;;;6.43;5.85;;;;;;;34.54;34.52;99019.22;5010767;28;20190;-82
2022/09/01 11:23:11;;;;;;;11.57;5.40;;;;;;;34.31;34.99;99016.41;5014783;28;20676;-84
2022/09/01 11:25:42;;;;;;;7.15;5.38;;;;;;;34.37;34.79;99008.63;5014895;28;20301;-79
2022/09/01 11:28:35;;;;;;;6.40;5.53;;;;;;;34.52;34.38;99010.47;5021087;28;20283;-78
2022/09/01 11:31:11;;;;;;;5.57;5.03;;;;;;;34.46;34.23;99011.97;5009398;28;20280;-81
2022/09/01 11:33:50;;;;;;;4.95;4.63;;;;;;;34.40;33.93;99005.13;5009372;28;20205;-81
2022/09/01 11:36:28;;;;;;;9.80;5.78;;;;;;;34.35;33.63;98999.91;5009280;28;20251;-80
2022/09/01 11:39:03;;;;;;;6.68;5.15;;;;;;;34.30;33.84;99005.69;5006450;28;20190;-75
2022/09/01 11:41:35;;;;;;;5.28;4.85;;;;;;;34.26;33.85;99007.56;5008081;28;20242;-73
2022/09/01 11:44:11;;;;;;;7.95;5.75;;;;;;;34.15;33.61;99001.03;5009157;28;20236;-73
2022/09/01 11:46:42;;;;;;;6.18;5.28;;;;;;;34.22;34.02;98995.69;5006662;28;20701;-72
2022/09/01 11:49:29;;;;;;;7.63;5.38;;;;;;;33.92;34.21;98997.41;5007901;28;20194;-73